首页
METAR-TAF:

METAR-TAF

机场 :

兰州中川国际机场

兰州, 中华人民共和国

纬度: 36-02N, 经度: 103-52E, 海拔: 1518米

当前天气观测

该预报发布于52分钟前的07:00 UTC
风速6节,风向,在东南南转西南之间变化
温度 9°C
湿度 27%
气压 1015 hPa
能见度10公里或以上
1500米以下无云,无积雨云

METAR: ZLLL 210700Z 17003MPS 130V210 CAVOK 09/M09 Q1015 NOSIG

时间: 15:52 (07:52 UTC)

预报

该预报发布于4小时和40分钟前的03:12 UTC
预报有效从21日的 06点(UTC)到 22日的 06点(UTC)
风速6节,风向
能見度: 6000

TAF: ZLLL 210312Z 2106/2206 18003MPS 6000 NSC TX09/2108Z TNM08/23Z

超过4000个机场的气象观测和天气预报(METAR&TAF报告)。

可查询的气象台以黄色和红色小点在地图上表示。

将鼠标移到小点上方,可查看气象台名称。

然后点击查看天气观测和预报。

如需切换地图:点击带黑十字的绿色按钮放大地图;点击带横线的绿色按钮缩小地图;或者点击绿色箭头查看邻近地区的地图。


METAR-TAF: